createdAt,value
2017-10-12T00:01:50.447Z,21.20
2017-10-12T00:04:19.125Z,21.20
2017-10-12T00:06:48.632Z,21.20
2017-10-12T00:09:17.299Z,21.20
2017-10-12T00:11:45.984Z,21.20
2017-10-12T00:14:14.738Z,21.20
2017-10-12T00:16:45.046Z,21.20
2017-10-12T00:19:13.714Z,21.20
2017-10-12T00:21:42.918Z,21.20
2017-10-12T00:24:12.382Z,21.20
2017-10-12T00:26:41.506Z,21.20
2017-10-12T00:29:12.125Z,21.20
2017-10-12T00:31:43.010Z,21.20
2017-10-12T00:34:12.176Z,21.20
2017-10-12T00:36:42.389Z,21.20
2017-10-12T00:39:13.387Z,21.20
2017-10-12T00:41:45.791Z,21.20
2017-10-12T00:44:14.482Z,21.10
2017-10-12T00:46:45.345Z,21.10
2017-10-12T00:49:15.043Z,21.10
2017-10-12T00:51:45.584Z,21.10
2017-10-12T00:54:16.560Z,21.10
2017-10-12T00:56:48.446Z,21.10
2017-10-12T00:59:17.949Z,21.00
2017-10-12T01:01:49.764Z,21.10
2017-10-12T01:04:21.944Z,21.00
2017-10-12T01:06:51.966Z,21.10
2017-10-12T01:09:21.954Z,21.10
2017-10-12T01:11:51.100Z,21.10
2017-10-12T01:14:19.887Z,21.10
2017-10-12T01:16:50.649Z,21.10
2017-10-12T01:19:20.500Z,21.10
2017-10-12T01:21:52.909Z,21.10
2017-10-12T01:24:25.582Z,21.10
2017-10-12T01:26:56.730Z,21.10
2017-10-12T01:29:25.800Z,21.10
2017-10-12T01:31:55.800Z,21.10
2017-10-12T01:34:27.266Z,21.10
2017-10-12T01:36:58.547Z,21.10
2017-10-12T01:39:28.524Z,21.00
2017-10-12T01:41:57.701Z,21.00
2017-10-12T01:44:26.968Z,21.00
2017-10-12T01:46:56.752Z,21.00
2017-10-12T01:49:26.446Z,21.00
2017-10-12T01:51:56.446Z,21.00
2017-10-12T01:54:25.862Z,21.00
2017-10-12T01:56:54.667Z,21.00
2017-10-12T01:59:23.638Z,21.00
2017-10-12T02:01:52.862Z,21.00
2017-10-12T02:04:22.549Z,20.90
2017-10-12T02:06:54.310Z,20.90
2017-10-12T02:09:26.661Z,20.90
2017-10-12T02:11:55.356Z,20.90
2017-10-12T02:14:26.209Z,21.00
2017-10-12T02:16:55.728Z,21.00
2017-10-12T02:19:24.555Z,21.00
2017-10-12T02:21:53.423Z,21.00
2017-10-12T02:24:23.703Z,21.00
2017-10-12T02:26:54.231Z,21.00
2017-10-12T02:29:24.761Z,20.90
2017-10-12T02:31:54.660Z,20.90
2017-10-12T02:34:23.632Z,21.00
2017-10-12T02:36:52.530Z,21.00
2017-10-12T02:39:21.364Z,21.00
2017-10-12T02:41:50.416Z,21.00
2017-10-12T02:44:19.111Z,20.90
2017-10-12T02:46:47.821Z,20.90
2017-10-12T02:49:17.282Z,20.90
2017-10-12T02:51:46.138Z,20.90
2017-10-12T02:54:16.326Z,20.90
2017-10-12T02:56:45.474Z,20.90
2017-10-12T02:59:15.847Z,20.80
2017-10-12T03:01:46.075Z,20.80
2017-10-12T03:04:15.436Z,20.90
2017-10-12T03:06:44.155Z,20.80
2017-10-12T03:09:12.738Z,20.90
2017-10-12T03:11:41.441Z,20.90
2017-10-12T03:14:10.059Z,20.80
2017-10-12T03:16:39.034Z,20.80
2017-10-12T03:19:08.335Z,20.80
2017-10-12T03:21:37.701Z,20.70
2017-10-12T03:24:06.577Z,20.70
2017-10-12T03:26:35.540Z,20.70
2017-10-12T03:29:04.129Z,20.70
2017-10-12T03:31:32.855Z,20.80
2017-10-12T03:34:01.573Z,20.80
2017-10-12T03:36:30.996Z,20.80
2017-10-12T03:38:59.735Z,20.70
2017-10-12T03:41:29.284Z,20.70
2017-10-12T03:43:57.962Z,20.70
2017-10-12T03:46:26.667Z,20.60
2017-10-12T03:48:55.447Z,20.60
2017-10-12T03:51:26.242Z,20.70
2017-10-12T03:53:56.397Z,20.70
2017-10-12T03:56:26.065Z,20.70
2017-10-12T03:58:54.618Z,20.70
2017-10-12T04:01:24.094Z,20.70
2017-10-12T04:03:52.681Z,19.50
2017-10-12T04:06:21.275Z,20.70
2017-10-12T04:08:49.852Z,20.60
2017-10-12T04:11:18.377Z,20.60
2017-10-12T04:13:46.975Z,20.50
2017-10-12T04:16:15.648Z,20.50
2017-10-12T04:18:44.280Z,20.50
2017-10-12T04:21:12.878Z,20.50
2017-10-12T04:23:41.593Z,20.50
2017-10-12T04:26:11.414Z,20.50
2017-10-12T04:28:40.455Z,20.60
2017-10-12T04:31:10.189Z,20.50
2017-10-12T04:33:40.380Z,20.50
2017-10-12T04:36:09.853Z,20.50
2017-10-12T04:38:39.483Z,20.50
2017-10-12T04:41:08.918Z,20.50
2017-10-12T04:43:37.505Z,20.50
2017-10-12T04:46:08.339Z,20.50
2017-10-12T04:48:37.105Z,20.50
2017-10-12T04:51:06.518Z,20.50
2017-10-12T04:53:35.212Z,20.50
2017-10-12T04:56:03.767Z,20.50
2017-10-12T04:58:32.314Z,20.50
2017-10-12T05:01:01.124Z,20.50
2017-10-12T05:03:30.633Z,20.50
2017-10-12T05:05:59.181Z,20.50
2017-10-12T05:08:28.701Z,20.50
2017-10-12T05:10:57.301Z,20.50
2017-10-12T05:13:25.896Z,20.60
2017-10-12T05:15:55.295Z,20.60
2017-10-12T05:18:23.897Z,20.60
2017-10-12T05:20:52.514Z,20.60
2017-10-12T05:23:21.101Z,20.60
2017-10-12T05:25:49.746Z,20.50
2017-10-12T05:28:18.383Z,20.50
2017-10-12T05:30:47.949Z,20.50
2017-10-12T05:33:16.563Z,20.60
2017-10-12T05:35:45.234Z,20.60
2017-10-12T05:38:14.351Z,20.50
2017-10-12T05:40:43.296Z,20.40
2017-10-12T05:43:12.119Z,20.40
2017-10-12T05:45:40.742Z,20.40
2017-10-12T05:48:09.324Z,20.50
2017-10-12T05:50:37.954Z,20.50
2017-10-12T05:53:06.538Z,20.50
2017-10-12T05:55:35.151Z,20.40
2017-10-12T05:58:03.841Z,20.40
2017-10-12T06:00:32.428Z,20.40
2017-10-12T06:03:01.062Z,20.30
2017-10-12T06:05:29.639Z,20.40
2017-10-12T06:07:58.261Z,20.40
2017-10-12T06:10:26.875Z,20.30
2017-10-12T06:12:55.750Z,20.30
2017-10-12T06:15:24.454Z,20.30
2017-10-12T06:17:53.054Z,20.40
2017-10-12T06:20:21.761Z,20.40
2017-10-12T06:22:50.407Z,20.30
2017-10-12T06:25:18.974Z,20.30
2017-10-12T06:27:47.583Z,20.30
2017-10-12T06:30:16.380Z,20.40
2017-10-12T06:32:45.338Z,20.30
2017-10-12T06:35:13.967Z,20.40
2017-10-12T06:37:42.793Z,20.40
2017-10-12T06:40:12.238Z,20.40
2017-10-12T06:42:41.086Z,20.50
2017-10-12T06:45:10.531Z,20.60
2017-10-12T06:47:39.117Z,20.60
2017-10-12T06:50:08.362Z,20.70
2017-10-12T06:52:37.712Z,20.60
2017-10-12T06:57:41.082Z,20.80
2017-10-12T07:00:10.435Z,20.80
2017-10-12T07:02:38.972Z,20.70
2017-10-12T07:05:09.344Z,20.80
2017-10-12T07:07:37.958Z,20.80
2017-10-12T07:10:07.690Z,20.90
2017-10-12T07:12:36.330Z,21.00
2017-10-12T07:15:05.166Z,21.20
2017-10-12T07:17:33.845Z,21.10
2017-10-12T07:20:02.432Z,21.10
2017-10-12T07:22:31.031Z,21.20
2017-10-12T07:24:59.865Z,21.30
2017-10-12T07:27:28.596Z,21.40
2017-10-12T07:29:57.158Z,21.10
2017-10-12T07:32:25.717Z,21.60
2017-10-12T07:34:55.047Z,21.50
2017-10-12T07:37:23.688Z,21.40
2017-10-12T07:39:52.428Z,21.40
2017-10-12T07:42:21.172Z,21.50
2017-10-12T07:44:49.750Z,21.70
2017-10-12T07:47:18.695Z,21.80
2017-10-12T07:49:47.351Z,21.90
2017-10-12T07:52:16.902Z,22.20
2017-10-12T07:54:45.608Z,22.20
2017-10-12T07:57:14.257Z,22.50
2017-10-12T07:59:42.898Z,22.80
2017-10-12T08:02:11.668Z,23.00
2017-10-12T08:04:40.419Z,23.10
2017-10-12T08:07:09.810Z,22.40
2017-10-12T08:09:38.429Z,22.40
2017-10-12T08:12:07.090Z,22.30
2017-10-12T08:14:36.439Z,22.10
2017-10-12T08:17:05.178Z,22.10
2017-10-12T08:19:33.811Z,22.00
2017-10-12T08:22:02.523Z,22.00
2017-10-12T08:24:31.458Z,22.20
2017-10-12T08:27:00.505Z,22.20
2017-10-12T08:29:29.625Z,22.50
2017-10-12T08:31:58.242Z,22.70
2017-10-12T08:34:27.141Z,23.00
2017-10-12T08:36:56.805Z,22.90
2017-10-12T08:39:26.481Z,22.80
2017-10-12T08:41:56.798Z,23.10
2017-10-12T08:44:25.630Z,23.10
2017-10-12T08:46:54.529Z,23.30
2017-10-12T08:49:24.910Z,23.60
2017-10-12T08:51:54.371Z,23.60
2017-10-12T08:54:23.800Z,23.90
2017-10-12T08:56:52.931Z,23.80
2017-10-12T08:59:24.001Z,24.10
2017-10-12T09:01:53.844Z,24.00
2017-10-12T09:04:22.782Z,24.10
2017-10-12T09:06:51.752Z,24.00
2017-10-12T09:09:20.515Z,24.10
2017-10-12T09:11:49.172Z,24.10
2017-10-12T09:14:18.603Z,24.20
2017-10-12T09:16:47.284Z,24.20
2017-10-12T09:19:18.229Z,24.20
2017-10-12T09:21:46.942Z,24.20
2017-10-12T09:24:16.656Z,24.20
2017-10-12T09:26:45.358Z,24.00
2017-10-12T09:31:52.092Z,24.40
2017-10-12T09:34:21.118Z,24.30
2017-10-12T09:36:50.173Z,23.90
2017-10-12T09:39:18.959Z,23.60
2017-10-12T09:41:48.278Z,23.60
2017-10-12T09:44:17.314Z,22.90
2017-10-12T09:46:46.060Z,24.30
2017-10-12T09:49:20.286Z,24.20
2017-10-12T09:51:50.469Z,23.70
2017-10-12T09:54:19.275Z,23.70
2017-10-12T09:56:48.281Z,23.90
2017-10-12T09:59:17.577Z,24.20
2017-10-12T10:01:47.132Z,24.10
2017-10-12T10:04:15.923Z,24.40
2017-10-12T10:06:44.862Z,24.10
2017-10-12T10:09:13.862Z,24.10
2017-10-12T10:11:43.621Z,24.10
2017-10-12T10:14:12.343Z,24.40
2017-10-12T10:16:41.906Z,24.40
2017-10-12T10:19:11.346Z,24.00
2017-10-12T10:21:39.998Z,24.00
2017-10-12T10:24:08.779Z,24.10
2017-10-12T10:26:38.397Z,24.30
2017-10-12T10:29:07.641Z,24.30
2017-10-12T10:31:36.540Z,24.30
2017-10-12T10:34:05.631Z,24.50
2017-10-12T10:36:35.431Z,24.70
2017-10-12T10:39:04.966Z,24.80
2017-10-12T10:41:34.080Z,24.80
2017-10-12T10:44:02.770Z,24.70
2017-10-12T10:46:31.865Z,24.60
2017-10-12T10:49:00.642Z,24.80
2017-10-12T10:51:30.223Z,25.00
2017-10-12T10:53:59.327Z,24.90
2017-10-12T10:56:28.308Z,25.00
2017-10-12T10:58:56.975Z,24.90
2017-10-12T11:01:25.817Z,24.60
2017-10-12T11:03:54.672Z,24.80
2017-10-12T11:06:24.830Z,25.00
2017-10-12T11:08:54.389Z,24.80
2017-10-12T11:11:24.046Z,24.80
2017-10-12T11:13:52.844Z,24.80
2017-10-12T11:16:21.619Z,24.70
2017-10-12T11:18:51.029Z,24.60
2017-10-12T11:21:19.900Z,24.60
2017-10-12T11:23:48.735Z,24.40
2017-10-12T11:26:17.564Z,24.30
2017-10-12T11:28:46.436Z,24.50
2017-10-12T11:31:16.117Z,24.70
2017-10-12T11:33:45.561Z,24.70
2017-10-12T11:36:14.406Z,24.70
2017-10-12T11:38:43.125Z,24.90
2017-10-12T11:41:11.953Z,24.90
2017-10-12T11:43:42.391Z,25.10
2017-10-12T11:46:11.238Z,25.10
2017-10-12T11:48:40.566Z,25.30
2017-10-12T11:51:10.281Z,25.40
2017-10-12T11:53:39.420Z,25.30
2017-10-12T11:56:11.674Z,25.00
2017-10-12T11:58:41.184Z,25.10
2017-10-12T12:01:10.037Z,25.10
2017-10-12T12:03:38.779Z,25.20
2017-10-12T12:06:07.484Z,25.00
2017-10-12T12:08:37.104Z,25.10
2017-10-12T12:11:05.989Z,25.20
2017-10-12T12:13:35.502Z,25.30
2017-10-12T12:16:04.375Z,25.30
2017-10-12T12:18:33.118Z,25.20
2017-10-12T12:21:01.974Z,25.00
2017-10-12T12:23:30.691Z,25.00
2017-10-12T12:26:00.043Z,25.10
2017-10-12T12:28:29.807Z,25.00
2017-10-12T12:30:58.558Z,24.90
2017-10-12T12:33:27.654Z,24.90
2017-10-12T12:35:56.403Z,24.70
2017-10-12T12:38:26.701Z,24.60
2017-10-12T12:40:55.473Z,24.50
2017-10-12T12:43:25.010Z,24.90
2017-10-12T12:45:55.332Z,25.20
2017-10-12T12:48:24.782Z,25.50
2017-10-12T12:50:53.724Z,25.50
2017-10-12T12:53:23.440Z,26.10
2017-10-12T12:55:52.177Z,26.60
2017-10-12T12:58:21.563Z,27.80
2017-10-12T13:00:50.256Z,27.70
2017-10-12T13:03:19.147Z,28.50
2017-10-12T13:05:48.049Z,28.90
2017-10-12T13:08:17.139Z,29.10
2017-10-12T13:10:46.200Z,27.80
2017-10-12T13:13:15.331Z,28.20
2017-10-12T13:15:44.153Z,28.70
2017-10-12T13:18:14.239Z,30.00
2017-10-12T13:20:43.231Z,30.00
2017-10-12T13:23:11.975Z,29.10
2017-10-12T13:25:41.438Z,30.30
2017-10-12T13:28:11.136Z,29.30
2017-10-12T13:30:40.029Z,29.40
2017-10-12T13:33:09.079Z,29.70
2017-10-12T13:35:38.938Z,30.50
2017-10-12T13:38:08.001Z,30.50
2017-10-12T13:40:37.347Z,31.00
2017-10-12T13:43:06.198Z,31.10
2017-10-12T13:45:35.367Z,30.00
2017-10-12T13:48:05.074Z,30.80
2017-10-12T13:50:33.916Z,30.70
2017-10-12T13:53:02.988Z,30.70
2017-10-12T13:55:32.241Z,29.90
2017-10-12T13:58:01.079Z,29.20
2017-10-12T14:00:31.857Z,28.10
2017-10-12T14:03:00.663Z,28.10
2017-10-12T14:05:30.055Z,27.90
2017-10-12T14:07:58.858Z,27.90
2017-10-12T14:10:27.978Z,27.40
2017-10-12T14:12:56.784Z,27.20
2017-10-12T14:15:25.674Z,27.30
2017-10-12T14:17:54.448Z,27.50
2017-10-12T14:20:23.223Z,26.60
2017-10-12T14:22:51.953Z,26.00
2017-10-12T14:25:21.341Z,26.00
2017-10-12T14:27:54.703Z,25.70
2017-10-12T14:30:25.468Z,25.30
2017-10-12T14:32:56.654Z,25.30
2017-10-12T14:35:25.475Z,25.40
2017-10-12T14:37:55.129Z,25.50
2017-10-12T14:40:24.685Z,25.60
2017-10-12T14:42:54.618Z,25.50
2017-10-12T14:45:23.438Z,25.50
2017-10-12T14:47:53.004Z,25.20
2017-10-12T14:50:22.455Z,25.20
2017-10-12T14:52:51.107Z,25.20
2017-10-12T14:55:19.768Z,25.30
2017-10-12T14:57:48.583Z,25.30
2017-10-12T15:00:17.192Z,25.20
2017-10-12T15:02:45.907Z,25.30
2017-10-12T15:05:14.575Z,25.10
2017-10-12T15:07:43.364Z,25.00
2017-10-12T15:10:12.457Z,24.90
2017-10-12T15:12:41.878Z,25.00
2017-10-12T15:15:10.955Z,25.20
2017-10-12T15:17:39.677Z,25.10
2017-10-12T15:20:08.814Z,25.20
2017-10-12T15:22:37.531Z,25.20
2017-10-12T15:25:06.393Z,25.00
2017-10-12T15:27:35.933Z,24.80
2017-10-12T15:30:04.715Z,24.80
2017-10-12T15:32:33.445Z,24.60
2017-10-12T15:35:02.179Z,24.40
2017-10-12T15:37:30.997Z,24.20
2017-10-12T15:40:02.017Z,24.20
2017-10-12T15:42:30.730Z,24.20
2017-10-12T15:44:59.702Z,24.10
2017-10-12T15:47:28.722Z,24.10
2017-10-12T15:49:57.563Z,24.10
2017-10-12T15:52:26.452Z,24.00
2017-10-12T15:54:55.318Z,24.00
2017-10-12T15:57:24.005Z,24.10
2017-10-12T15:59:52.639Z,24.00
2017-10-12T16:02:21.364Z,24.00
2017-10-12T16:04:50.812Z,23.90
2017-10-12T16:07:19.537Z,23.90
2017-10-12T16:09:49.258Z,23.90
2017-10-12T16:12:18.491Z,23.80
2017-10-12T16:14:48.006Z,23.90
2017-10-12T16:17:16.766Z,23.90
2017-10-12T16:19:45.399Z,23.90
2017-10-12T16:22:14.092Z,23.90
2017-10-12T16:24:43.699Z,23.90
2017-10-12T16:27:12.288Z,23.80
2017-10-12T16:29:40.975Z,23.70
2017-10-12T16:32:10.779Z,23.70
2017-10-12T16:34:39.543Z,23.60
2017-10-12T16:37:08.200Z,23.50
2017-10-12T16:39:36.910Z,23.40
2017-10-12T16:42:06.546Z,23.50
2017-10-12T16:44:35.288Z,23.40
2017-10-12T16:47:04.025Z,23.50
2017-10-12T16:49:32.736Z,23.40
2017-10-12T16:52:02.527Z,23.30
2017-10-12T16:54:31.433Z,23.20
2017-10-12T16:57:00.477Z,23.20
2017-10-12T16:59:29.433Z,23.30
2017-10-12T17:01:58.470Z,23.30
2017-10-12T17:04:28.027Z,23.20
2017-10-12T17:06:56.747Z,23.20
2017-10-12T17:09:25.534Z,23.10
2017-10-12T17:11:54.304Z,23.10
2017-10-12T17:14:24.669Z,23.00
2017-10-12T17:16:53.443Z,23.00
2017-10-12T17:19:22.333Z,23.00
2017-10-12T17:21:51.172Z,22.90
2017-10-12T17:24:19.913Z,22.90
2017-10-12T17:26:48.813Z,22.90
2017-10-12T17:29:17.608Z,22.80
2017-10-12T17:31:46.391Z,22.80
2017-10-12T17:34:15.110Z,22.90
2017-10-12T17:36:43.734Z,22.80
2017-10-12T17:39:13.604Z,22.80
2017-10-12T17:41:42.737Z,22.70
2017-10-12T17:44:11.477Z,22.70
2017-10-12T17:46:40.411Z,22.70
2017-10-12T17:49:09.917Z,22.70
2017-10-12T17:51:38.783Z,22.70
2017-10-12T17:54:36.469Z,22.70
2017-10-12T17:56:36.520Z,22.70
2017-10-12T18:01:35.024Z,22.60
2017-10-12T18:04:03.870Z,22.60
2017-10-12T18:06:33.443Z,22.60
2017-10-12T18:09:02.385Z,22.50
2017-10-12T18:11:31.103Z,22.50
2017-10-12T18:13:59.892Z,22.50
2017-10-12T18:16:28.704Z,22.50
2017-10-12T18:18:58.227Z,22.50
2017-10-12T18:21:27.798Z,22.50
2017-10-12T18:23:56.475Z,22.50
2017-10-12T18:26:25.181Z,22.50
2017-10-12T18:28:53.826Z,22.50
2017-10-12T18:31:22.645Z,22.40
2017-10-12T18:33:51.360Z,22.40
2017-10-12T18:36:19.969Z,22.50
2017-10-12T18:38:48.736Z,22.50
2017-10-12T18:41:17.620Z,22.50
2017-10-12T18:43:47.003Z,22.60
2017-10-12T18:46:15.708Z,22.50
2017-10-12T18:48:44.509Z,22.50
2017-10-12T18:51:13.214Z,22.40
2017-10-12T18:53:41.985Z,22.40
2017-10-12T18:56:10.724Z,22.40
2017-10-12T18:58:39.403Z,22.40
2017-10-12T19:01:08.190Z,22.40
2017-10-12T19:03:36.979Z,22.40
2017-10-12T19:06:05.740Z,22.40
2017-10-12T19:08:34.371Z,22.40
2017-10-12T19:11:03.285Z,22.30
2017-10-12T19:13:31.958Z,22.40
2017-10-12T19:16:00.686Z,22.30
2017-10-12T19:18:29.666Z,22.40
2017-10-12T19:20:59.335Z,22.30
2017-10-12T19:23:28.007Z,22.30
2017-10-12T19:25:56.874Z,22.30
2017-10-12T19:28:40.598Z,22.30
2017-10-12T19:30:54.513Z,22.30
2017-10-12T19:33:23.441Z,22.30
2017-10-12T19:35:52.254Z,22.30
2017-10-12T19:38:22.011Z,22.30
2017-10-12T19:43:19.728Z,22.30
2017-10-12T19:48:17.270Z,22.20
2017-10-12T19:50:45.986Z,22.20
2017-10-12T19:53:15.194Z,22.20
2017-10-12T19:55:44.600Z,22.20
2017-10-12T19:58:15.744Z,22.20
2017-10-12T20:00:45.987Z,22.20
2017-10-12T20:03:15.425Z,22.20
2017-10-12T20:05:44.856Z,22.20
2017-10-12T20:08:15.260Z,22.10
2017-10-12T20:10:44.824Z,22.10
2017-10-12T20:13:15.055Z,22.10
2017-10-12T20:15:44.400Z,22.10
2017-10-12T20:18:16.986Z,22.10
2017-10-12T20:20:46.530Z,22.10
2017-10-12T20:23:16.297Z,22.10
2017-10-12T20:25:46.792Z,22.10
2017-10-12T20:28:16.702Z,22.10
2017-10-12T20:30:46.350Z,22.10
2017-10-12T20:33:15.851Z,22.00
2017-10-12T20:35:44.853Z,22.00
2017-10-12T20:38:14.452Z,22.00
2017-10-12T20:40:43.848Z,22.00
2017-10-12T20:43:12.734Z,21.90
2017-10-12T20:45:41.442Z,22.10
2017-10-12T20:48:10.614Z,22.00
2017-10-12T20:50:39.700Z,22.00
2017-10-12T20:53:09.727Z,22.00
2017-10-12T20:55:38.673Z,22.00
2017-10-12T20:58:08.063Z,21.90
2017-10-12T21:00:37.447Z,21.90
2017-10-12T21:03:07.911Z,21.90
2017-10-12T21:05:38.660Z,21.90
2017-10-12T21:08:08.522Z,21.90
2017-10-12T21:10:39.260Z,21.90
2017-10-12T21:13:09.576Z,21.80
2017-10-12T21:15:40.729Z,21.90
2017-10-12T21:18:11.367Z,21.80
2017-10-12T21:20:41.221Z,21.80
2017-10-12T21:23:10.500Z,21.80
2017-10-12T21:25:39.710Z,21.90
2017-10-12T21:28:08.446Z,21.90
2017-10-12T21:30:37.163Z,21.90
2017-10-12T21:33:12.064Z,21.80
2017-10-12T21:35:46.511Z,21.80
2017-10-12T21:38:16.403Z,21.80
2017-10-12T21:40:46.765Z,21.80
2017-10-12T21:43:16.636Z,21.80
2017-10-12T21:45:46.312Z,21.80
2017-10-12T21:48:14.951Z,21.80
2017-10-12T21:50:43.566Z,21.70
2017-10-12T21:53:12.264Z,21.80
2017-10-12T21:55:41.393Z,21.80
2017-10-12T21:58:10.072Z,21.70
2017-10-12T22:00:38.826Z,21.70
2017-10-12T22:03:08.440Z,21.70
2017-10-12T22:05:37.061Z,21.70
2017-10-12T22:08:05.777Z,21.70
2017-10-12T22:10:34.854Z,21.70
2017-10-12T22:13:03.948Z,21.70
2017-10-12T22:15:32.670Z,21.70
2017-10-12T22:18:02.897Z,21.70
2017-10-12T22:20:33.225Z,21.70
2017-10-12T22:23:03.343Z,21.60
2017-10-12T22:25:34.285Z,21.60
2017-10-12T22:28:04.055Z,21.60
2017-10-12T22:30:33.753Z,21.60
2017-10-12T22:33:04.697Z,21.60
2017-10-12T22:35:34.409Z,21.60
2017-10-12T22:38:04.495Z,21.60
2017-10-12T22:40:34.603Z,21.50
2017-10-12T22:43:04.369Z,21.50
2017-10-12T22:45:33.895Z,21.60
2017-10-12T22:48:03.057Z,21.50
2017-10-12T22:50:32.430Z,21.50
2017-10-12T22:53:01.761Z,21.50
2017-10-12T22:55:31.213Z,21.50
2017-10-12T22:58:01.322Z,21.50
2017-10-12T23:00:30.692Z,21.50
2017-10-12T23:03:00.091Z,21.50
2017-10-12T23:05:28.983Z,21.50
2017-10-12T23:07:58.084Z,21.50
2017-10-12T23:10:27.374Z,21.50
2017-10-12T23:12:56.577Z,21.50
2017-10-12T23:15:26.925Z,21.50
2017-10-12T23:17:56.824Z,21.60
2017-10-12T23:20:25.993Z,21.60
2017-10-12T23:22:55.204Z,21.60
2017-10-12T23:25:25.212Z,21.60
2017-10-12T23:27:54.019Z,21.60
2017-10-12T23:30:22.936Z,21.50
2017-10-12T23:32:51.903Z,21.50
2017-10-12T23:35:21.612Z,21.40
2017-10-12T23:37:50.557Z,21.40
2017-10-12T23:40:19.733Z,21.40
2017-10-12T23:42:48.875Z,21.40
2017-10-12T23:45:17.555Z,21.40
2017-10-12T23:47:46.644Z,21.40
2017-10-12T23:50:15.779Z,21.40
2017-10-12T23:52:45.080Z,21.50
2017-10-12T23:55:13.995Z,21.50
2017-10-12T23:57:43.786Z,21.50
